Time;durP1;ratioP1;P1;durP2;ratioP2;P2;SDS_P1;SDS_P2;PMS_P1;PMS_P2;Temp;Humidity;BMP_temperature;BMP_pressure;BME280_temperature;BME280_humidity;BME280_pressure;Samples;Min_cycle;Max_cycle;Signal;HPM_P1;HPM_P2
2022/11/03 00:00:12;;;;;;;0.00;0.00;;;;;;;;;;1739283;28;20195;-67
2022/11/03 00:01:03;;;;;;;0.00;0.00;;;;;;;;;;1738761;28;20195;-66
2022/11/03 00:01:55;;;;;;;0.00;0.00;;;;;;;;;;1739467;28;20210;-69
2022/11/03 00:02:46;;;;;;;0.00;0.00;;;;;;;;;;1738455;28;20582;-67
2022/11/03 00:03:38;;;;;;;0.00;0.00;;;;;;;;;;1739374;28;20230;-66
2022/11/03 00:04:30;;;;;;;0.00;0.00;;;;;;;;;;1739668;28;20214;-69
2022/11/03 00:06:31;;;;;;;0.00;0.00;;;;;;;;;;1738793;28;20260;-68
2022/11/03 00:07:22;;;;;;;0.00;0.00;;;;;;;;;;1739295;28;20206;-67
2022/11/03 00:08:14;;;;;;;0.00;0.00;;;;;;;;;;1740299;28;20588;-67
2022/11/03 00:09:06;;;;;;;0.00;0.00;;;;;;;;;;1740992;28;20674;-68
2022/11/03 00:09:58;;;;;;;0.00;0.00;;;;;;;;;;1739960;28;20203;-67
2022/11/03 00:10:49;;;;;;;0.00;0.00;;;;;;;;;;1735842;28;20204;-67
2022/11/03 00:11:43;;;;;;;0.00;0.00;;;;;;;;;;1739901;28;20252;-68
2022/11/03 00:12:34;;;;;;;0.00;0.00;;;;;;;;;;1741291;28;20238;-67
2022/11/03 00:13:27;;;;;;;0.00;0.00;;;;;;;;;;1740387;28;20217;-67
2022/11/03 00:14:19;;;;;;;0.00;0.00;;;;;;;;;;1736468;28;20234;-67
2022/11/03 00:15:10;;;;;;;0.00;0.00;;;;;;;;;;1740490;28;20257;-67
2022/11/03 00:16:03;;;;;;;0.00;0.00;;;;;;;;;;1738073;28;20234;-66
2022/11/03 00:16:54;;;;;;;0.00;0.00;;;;;;;;;;1739917;28;20272;-67
2022/11/03 00:17:46;;;;;;;0.00;0.00;;;;;;;;;;1737212;28;20248;-68
2022/11/03 00:18:38;;;;;;;0.00;0.00;;;;;;;;;;1739064;28;20582;-67
2022/11/03 00:19:30;;;;;;;0.00;0.00;;;;;;;;;;1739644;28;20219;-67
2022/11/03 00:20:21;;;;;;;0.00;0.00;;;;;;;;;;1739851;28;20951;-66
2022/11/03 00:21:14;;;;;;;0.00;0.00;;;;;;;;;;1744640;28;20202;-67
2022/11/03 00:22:05;;;;;;;0.00;0.00;;;;;;;;;;1736308;28;20295;-68
2022/11/03 00:22:56;;;;;;;0.00;0.00;;;;;;;;;;1734920;28;20210;-67
2022/11/03 00:23:48;;;;;;;0.00;0.00;;;;;;;;;;1736446;28;20202;-68
2022/11/03 00:24:39;;;;;;;0.00;0.00;;;;;;;;;;1740103;28;20237;-69
2022/11/03 00:25:31;;;;;;;0.00;0.00;;;;;;;;;;1740074;28;20253;-67
2022/11/03 00:26:23;;;;;;;0.00;0.00;;;;;;;;;;1735734;28;20227;-67
2022/11/03 00:27:15;;;;;;;0.00;0.00;;;;;;;;;;1738582;28;20207;-67
2022/11/03 00:28:06;;;;;;;0.00;0.00;;;;;;;;;;1739323;28;20199;-67
2022/11/03 00:29:01;;;;;;;0.00;0.00;;;;;;;;;;1742742;28;20198;-69
2022/11/03 00:29:52;;;;;;;0.00;0.00;;;;;;;;;;1739900;28;20313;-67
2022/11/03 00:30:43;;;;;;;0.00;0.00;;;;;;;;;;1738113;28;20203;-66
2022/11/03 00:31:36;;;;;;;0.00;0.00;;;;;;;;;;1742929;28;20218;-67
2022/11/03 00:32:27;;;;;;;0.00;0.00;;;;;;;;;;1739445;28;20257;-67
2022/11/03 00:33:18;;;;;;;0.00;0.00;;;;;;;;;;1739811;28;20221;-68
2022/11/03 00:34:10;;;;;;;0.00;0.00;;;;;;;;;;1743238;28;20202;-67
2022/11/03 00:35:01;;;;;;;0.00;0.00;;;;;;;;;;1740405;28;20667;-67
2022/11/03 00:35:56;;;;;;;0.00;0.00;;;;;;;;;;1739605;28;20227;-67
2022/11/03 00:36:48;;;;;;;0.00;0.00;;;;;;;;;;1739934;28;20743;-67
2022/11/03 00:37:39;;;;;;;0.00;0.00;;;;;;;;;;1743506;28;20608;-67
2022/11/03 00:38:31;;;;;;;0.00;0.00;;;;;;;;;;1735088;28;20200;-68
2022/11/03 00:39:22;;;;;;;0.00;0.00;;;;;;;;;;1741344;28;20233;-67
2022/11/03 00:40:14;;;;;;;0.00;0.00;;;;;;;;;;1736469;28;20276;-67
2022/11/03 00:41:06;;;;;;;0.00;0.00;;;;;;;;;;1738039;28;20199;-67
2022/11/03 00:41:58;;;;;;;0.00;0.00;;;;;;;;;;1740039;28;20210;-67
2022/11/03 00:42:49;;;;;;;0.00;0.00;;;;;;;;;;1739575;28;20203;-68
2022/11/03 00:43:41;;;;;;;0.00;0.00;;;;;;;;;;1738915;28;20252;-67
2022/11/03 00:44:33;;;;;;;0.00;0.00;;;;;;;;;;1741904;28;20217;-67
2022/11/03 00:45:25;;;;;;;0.00;0.00;;;;;;;;;;1739909;28;20211;-67
2022/11/03 00:46:17;;;;;;;0.00;0.00;;;;;;;;;;1739985;28;20199;-67
2022/11/03 00:47:09;;;;;;;0.00;0.00;;;;;;;;;;1740334;28;20234;-67
2022/11/03 00:49:10;;;;;;;0.00;0.00;;;;;;;;;;1739522;28;20202;-67
2022/11/03 00:50:02;;;;;;;0.00;0.00;;;;;;;;;;1742483;23;20228;-79
2022/11/03 00:50:53;;;;;;;0.00;0.00;;;;;;;;;;1738896;28;20537;-79
2022/11/03 00:51:45;;;;;;;0.00;0.00;;;;;;;;;;1735847;28;20373;-79
2022/11/03 00:52:36;;;;;;;0.00;0.00;;;;;;;;;;1741857;28;20640;-79
2022/11/03 00:53:31;;;;;;;0.00;0.00;;;;;;;;;;1733298;28;20681;-79
2022/11/03 00:54:22;;;;;;;0.00;0.00;;;;;;;;;;1732504;28;20227;-79
2022/11/03 00:55:14;;;;;;;0.00;0.00;;;;;;;;;;1739379;28;20191;-79
2022/11/03 00:56:06;;;;;;;0.00;0.00;;;;;;;;;;1739650;28;20210;-79
2022/11/03 00:56:59;;;;;;;0.00;0.00;;;;;;;;;;1740434;28;20203;-79
2022/11/03 00:57:52;;;;;;;0.00;0.00;;;;;;;;;;1740971;28;20206;-79
2022/11/03 00:58:45;;;;;;;0.00;0.00;;;;;;;;;;1737735;28;20457;-78
2022/11/03 00:59:37;;;;;;;0.00;0.00;;;;;;;;;;1738442;28;22108;-79
2022/11/03 01:00:29;;;;;;;0.00;0.00;;;;;;;;;;1739047;28;20203;-79
2022/11/03 01:01:22;;;;;;;0.00;0.00;;;;;;;;;;1739442;28;20231;-79
2022/11/03 01:02:14;;;;;;;0.00;0.00;;;;;;;;;;1737252;28;20676;-79
2022/11/03 01:03:06;;;;;;;0.00;0.00;;;;;;;;;;1744996;28;20272;-79
2022/11/03 01:07:29;;;;;;;0.00;0.00;;;;;;;;;;1743731;28;20595;-78
2022/11/03 01:08:20;;;;;;;0.00;0.00;;;;;;;;;;1739805;28;20692;-78
2022/11/03 01:09:12;;;;;;;0.00;0.00;;;;;;;;;;1741814;28;20285;-78
2022/11/03 01:10:04;;;;;;;0.00;0.00;;;;;;;;;;1741084;28;20206;-78
2022/11/03 01:12:04;;;;;;;0.00;0.00;;;;;;;;;;1706221;28;20207;-78
2022/11/03 01:12:55;;;;;;;0.00;0.00;;;;;;;;;;1723553;28;20210;-78
2022/11/03 01:13:46;;;;;;;0.00;0.00;;;;;;;;;;1739305;28;20256;-78
2022/11/03 01:14:42;;;;;;;0.00;0.00;;;;;;;;;;1739703;28;20450;-78
2022/11/03 01:15:33;;;;;;;0.00;0.00;;;;;;;;;;1739832;28;20219;-78
2022/11/03 01:16:24;;;;;;;0.00;0.00;;;;;;;;;;1744083;28;20877;-78
2022/11/03 01:17:17;;;;;;;0.00;0.00;;;;;;;;;;1742122;28;20202;-78
2022/11/03 01:18:09;;;;;;;0.00;0.00;;;;;;;;;;1739940;28;20241;-78
2022/11/03 01:19:00;;;;;;;0.00;0.00;;;;;;;;;;1735228;28;20231;-78
2022/11/03 01:19:54;;;;;;;0.00;0.00;;;;;;;;;;1735505;28;20650;-78
2022/11/03 01:20:45;;;;;;;0.00;0.00;;;;;;;;;;1740944;28;20265;-78
2022/11/03 01:21:37;;;;;;;0.00;0.00;;;;;;;;;;1746836;28;20202;-78
2022/11/03 01:22:28;;;;;;;0.00;0.00;;;;;;;;;;1740118;28;20246;-78
2022/11/03 01:23:21;;;;;;;0.00;0.00;;;;;;;;;;1742083;28;20241;-78
2022/11/03 01:24:12;;;;;;;0.00;0.00;;;;;;;;;;1744268;28;20199;-78
2022/11/03 01:25:04;;;;;;;0.00;0.00;;;;;;;;;;1745790;28;20198;-78
2022/11/03 01:25:55;;;;;;;0.00;0.00;;;;;;;;;;1740423;28;20594;-78
2022/11/03 01:26:48;;;;;;;0.00;0.00;;;;;;;;;;1740414;28;20199;-78
2022/11/03 01:27:39;;;;;;;0.00;0.00;;;;;;;;;;1740047;28;20576;-78
2022/11/03 01:28:31;;;;;;;0.00;0.00;;;;;;;;;;1733310;28;20203;-78
2022/11/03 01:29:23;;;;;;;0.00;0.00;;;;;;;;;;1731944;28;20203;-78
2022/11/03 01:30:16;;;;;;;0.00;0.00;;;;;;;;;;1733732;28;20239;-78
2022/11/03 01:31:08;;;;;;;0.00;0.00;;;;;;;;;;1739354;28;20930;-78
2022/11/03 01:32:00;;;;;;;0.00;0.00;;;;;;;;;;1733253;28;20282;-78
2022/11/03 01:32:52;;;;;;;0.00;0.00;;;;;;;;;;1740570;28;20195;-78
2022/11/03 01:33:45;;;;;;;0.00;0.00;;;;;;;;;;1736403;28;20210;-78
2022/11/03 01:34:36;;;;;;;0.00;0.00;;;;;;;;;;1737399;28;20667;-77
2022/11/03 01:35:28;;;;;;;0.00;0.00;;;;;;;;;;1741978;28;20203;-77
2022/11/03 01:36:20;;;;;;;0.00;0.00;;;;;;;;;;1742768;28;20199;-77
2022/11/03 01:37:12;;;;;;;0.00;0.00;;;;;;;;;;1741127;28;20199;-77
2022/11/03 01:38:04;;;;;;;0.00;0.00;;;;;;;;;;1736006;28;20223;-77
2022/11/03 01:38:56;;;;;;;0.00;0.00;;;;;;;;;;1742350;28;20260;-78
2022/11/03 01:39:47;;;;;;;0.00;0.00;;;;;;;;;;1739026;28;20234;-77
2022/11/03 01:40:39;;;;;;;0.00;0.00;;;;;;;;;;1735994;28;20203;-77
2022/11/03 01:41:30;;;;;;;0.00;0.00;;;;;;;;;;1730058;28;20239;-77
2022/11/03 01:42:23;;;;;;;0.00;0.00;;;;;;;;;;1731932;28;20196;-77
2022/11/03 01:43:14;;;;;;;0.00;0.00;;;;;;;;;;1733474;28;20199;-77
2022/11/03 01:44:25;;;;;;;0.00;0.00;;;;;;;;;;1740733;28;20195;-77
2022/11/03 01:45:19;;;;;;;0.00;0.00;;;;;;;;;;1740785;28;20234;-77
2022/11/03 01:46:15;;;;;;;0.00;0.00;;;;;;;;;;1739203;28;20226;-77
2022/11/03 01:47:12;;;;;;;0.00;0.00;;;;;;;;;;1738752;28;20633;-78
2022/11/03 01:48:03;;;;;;;0.00;0.00;;;;;;;;;;1740375;28;20199;-77
2022/11/03 01:48:58;;;;;;;0.00;0.00;;;;;;;;;;1739749;28;20237;-78
2022/11/03 01:49:51;;;;;;;0.00;0.00;;;;;;;;;;1740190;28;20574;-78
2022/11/03 01:50:44;;;;;;;0.00;0.00;;;;;;;;;;1740924;28;20205;-78
2022/11/03 01:51:36;;;;;;;0.00;0.00;;;;;;;;;;1744617;28;20702;-78
2022/11/03 01:52:30;;;;;;;0.00;0.00;;;;;;;;;;1743363;28;20203;-77
2022/11/03 01:53:22;;;;;;;0.00;0.00;;;;;;;;;;1735158;28;20261;-78
2022/11/03 01:54:17;;;;;;;0.00;0.00;;;;;;;;;;1738279;28;20290;-78
2022/11/03 01:55:10;;;;;;;0.00;0.00;;;;;;;;;;1733236;28;20196;-78
2022/11/03 01:56:03;;;;;;;0.00;0.00;;;;;;;;;;1740523;28;20226;-78
2022/11/03 01:56:55;;;;;;;0.00;0.00;;;;;;;;;;1739332;28;20234;-78
2022/11/03 01:57:49;;;;;;;0.00;0.00;;;;;;;;;;1740942;28;20199;-78
2022/11/03 01:58:41;;;;;;;0.00;0.00;;;;;;;;;;1741627;28;20230;-78
2022/11/03 01:59:33;;;;;;;0.00;0.00;;;;;;;;;;1741635;28;20201;-78
2022/11/03 02:00:26;;;;;;;0.00;0.00;;;;;;;;;;1739879;28;20206;-78
2022/11/03 02:01:19;;;;;;;0.00;0.00;;;;;;;;;;1738486;28;20237;-78
2022/11/03 02:02:11;;;;;;;0.00;0.00;;;;;;;;;;1738921;28;20534;-78
2022/11/03 02:03:03;;;;;;;0.00;0.00;;;;;;;;;;1739357;28;20719;-78
2022/11/03 02:03:57;;;;;;;0.00;0.00;;;;;;;;;;1739101;28;20237;-78
2022/11/03 02:04:50;;;;;;;0.00;0.00;;;;;;;;;;1735372;28;20192;-78
2022/11/03 02:05:43;;;;;;;0.00;0.00;;;;;;;;;;1731136;28;20399;-79
2022/11/03 02:06:35;;;;;;;0.00;0.00;;;;;;;;;;1731150;28;20598;-78
2022/11/03 02:07:29;;;;;;;0.00;0.00;;;;;;;;;;1739039;28;20199;-78
2022/11/03 02:08:24;;;;;;;0.00;0.00;;;;;;;;;;1739360;28;20201;-79
2022/11/03 02:09:15;;;;;;;0.00;0.00;;;;;;;;;;1733176;28;20196;-79
2022/11/03 02:10:09;;;;;;;0.00;0.00;;;;;;;;;;1739369;28;20203;-78
2022/11/03 02:12:05;;;;;;;0.00;0.00;;;;;;;;;;1734090;28;20336;-79
2022/11/03 02:12:15;;;;;;;0.00;0.00;;;;;;;;;;1733615;28;20269;-79
2022/11/03 02:13:10;;;;;;;0.00;0.00;;;;;;;;;;1732944;28;20562;-79
2022/11/03 02:14:02;;;;;;;0.00;0.00;;;;;;;;;;1732499;28;20653;-79
2022/11/03 02:14:55;;;;;;;0.00;0.00;;;;;;;;;;1732571;28;20688;-79
2022/11/03 02:15:49;;;;;;;0.00;0.00;;;;;;;;;;1738427;28;20230;-79
2022/11/03 02:16:42;;;;;;;0.00;0.00;;;;;;;;;;1739118;28;20203;-79
2022/11/03 02:17:35;;;;;;;0.00;0.00;;;;;;;;;;1743057;28;20202;-79
2022/11/03 02:18:28;;;;;;;0.00;0.00;;;;;;;;;;1737365;28;20677;-79
2022/11/03 02:19:24;;;;;;;0.00;0.00;;;;;;;;;;1734319;28;20203;-79
2022/11/03 02:20:18;;;;;;;0.00;0.00;;;;;;;;;;1739933;28;20241;-78
2022/11/03 02:21:15;;;;;;;0.00;0.00;;;;;;;;;;1741938;28;20206;-79
2022/11/03 02:22:15;;;;;;;0.00;0.00;;;;;;;;;;1728629;28;21114;-79
2022/11/03 02:23:12;;;;;;;0.00;0.00;;;;;;;;;;1741808;28;20242;-79
2022/11/03 02:24:10;;;;;;;0.00;0.00;;;;;;;;;;1738724;28;20199;-79
2022/11/03 02:25:05;;;;;;;0.00;0.00;;;;;;;;;;1733179;28;20231;-78
2022/11/03 02:26:00;;;;;;;0.00;0.00;;;;;;;;;;1726509;28;20196;-79
2022/11/03 02:26:53;;;;;;;0.00;0.00;;;;;;;;;;1737754;28;20589;-79
2022/11/03 02:27:46;;;;;;;0.00;0.00;;;;;;;;;;1738205;28;20568;-79
2022/11/03 02:28:37;;;;;;;0.00;0.00;;;;;;;;;;1739892;28;20203;-79
2022/11/03 02:29:28;;;;;;;0.00;0.00;;;;;;;;;;1740087;28;20206;-79
2022/11/03 02:30:21;;;;;;;0.00;0.00;;;;;;;;;;1741343;28;20353;-79
2022/11/03 02:31:16;;;;;;;0.00;0.00;;;;;;;;;;1731916;28;20196;-79
2022/11/03 02:32:12;;;;;;;0.00;0.00;;;;;;;;;;1731566;28;20234;-78
2022/11/03 02:33:06;;;;;;;0.00;0.00;;;;;;;;;;1744088;28;20316;-79
2022/11/03 02:34:01;;;;;;;0.00;0.00;;;;;;;;;;1740469;28;20979;-78
2022/11/03 02:34:55;;;;;;;0.00;0.00;;;;;;;;;;1737421;28;20202;-79
2022/11/03 02:35:52;;;;;;;0.00;0.00;;;;;;;;;;1739453;28;20261;-79
2022/11/03 02:36:46;;;;;;;0.00;0.00;;;;;;;;;;1739088;28;20599;-79
2022/11/03 02:37:41;;;;;;;0.00;0.00;;;;;;;;;;1739230;28;20653;-79
2022/11/03 02:38:35;;;;;;;0.00;0.00;;;;;;;;;;1736421;28;20229;-79
2022/11/03 02:39:31;;;;;;;0.00;0.00;;;;;;;;;;1735173;28;20764;-79
2022/11/03 02:40:25;;;;;;;0.00;0.00;;;;;;;;;;1741136;28;20194;-79
2022/11/03 02:41:19;;;;;;;0.00;0.00;;;;;;;;;;1741187;28;20625;-78
2022/11/03 02:42:11;;;;;;;0.00;0.00;;;;;;;;;;1736318;28;20287;-78
2022/11/03 02:43:04;;;;;;;0.00;0.00;;;;;;;;;;1732223;28;20200;-78
2022/11/03 02:43:56;;;;;;;0.00;0.00;;;;;;;;;;1734067;28;20787;-78
2022/11/03 02:44:49;;;;;;;0.00;0.00;;;;;;;;;;1730480;28;20230;-78
2022/11/03 02:45:41;;;;;;;0.00;0.00;;;;;;;;;;1730025;28;20250;-78
2022/11/03 02:46:35;;;;;;;0.00;0.00;;;;;;;;;;1742011;28;20628;-78
2022/11/03 02:47:27;;;;;;;0.00;0.00;;;;;;;;;;1743219;28;20245;-78
2022/11/03 02:48:19;;;;;;;0.00;0.00;;;;;;;;;;1739638;28;20226;-78
2022/11/03 02:49:12;;;;;;;0.00;0.00;;;;;;;;;;1736063;28;20205;-78
2022/11/03 02:50:07;;;;;;;0.00;0.00;;;;;;;;;;1738240;28;20199;-78
2022/11/03 02:50:59;;;;;;;0.00;0.00;;;;;;;;;;1726686;28;20258;-78
2022/11/03 02:51:58;;;;;;;0.00;0.00;;;;;;;;;;1723841;28;20197;-78
2022/11/03 02:52:51;;;;;;;0.00;0.00;;;;;;;;;;1715648;28;20212;-78
2022/11/03 02:53:44;;;;;;;0.00;0.00;;;;;;;;;;1723595;28;20235;-78
2022/11/03 02:54:38;;;;;;;0.00;0.00;;;;;;;;;;1730803;28;20200;-78
2022/11/03 02:55:33;;;;;;;0.00;0.00;;;;;;;;;;1732447;28;20203;-78
2022/11/03 02:56:27;;;;;;;0.00;0.00;;;;;;;;;;1733385;28;20663;-78
2022/11/03 02:57:22;;;;;;;0.00;0.00;;;;;;;;;;1732592;28;20666;-79
2022/11/03 02:58:19;;;;;;;0.00;0.00;;;;;;;;;;1725500;28;20199;-79
2022/11/03 02:59:12;;;;;;;0.00;0.00;;;;;;;;;;1725267;28;20197;-79
2022/11/03 03:00:06;;;;;;;0.00;0.00;;;;;;;;;;1725441;28;20196;-79
2022/11/03 03:00:59;;;;;;;0.00;0.00;;;;;;;;;;1726174;28;20207;-78
2022/11/03 03:01:54;;;;;;;0.00;0.00;;;;;;;;;;1730984;28;20199;-78
2022/11/03 03:02:51;;;;;;;0.00;0.00;;;;;;;;;;1728993;28;20239;-78
2022/11/03 03:03:47;;;;;;;0.00;0.00;;;;;;;;;;1735681;28;20200;-78
2022/11/03 03:04:39;;;;;;;0.00;0.00;;;;;;;;;;1732937;28;20568;-78
2022/11/03 03:05:32;;;;;;;0.00;0.00;;;;;;;;;;1733428;28;20206;-78
2022/11/03 03:06:25;;;;;;;0.00;0.00;;;;;;;;;;1733500;28;20214;-78
2022/11/03 03:07:22;;;;;;;0.00;0.00;;;;;;;;;;1732060;28;20262;-78
2022/11/03 03:08:14;;;;;;;0.00;0.00;;;;;;;;;;1732139;28;20196;-78
2022/11/03 03:09:08;;;;;;;0.00;0.00;;;;;;;;;;1732012;28;20221;-78
2022/11/03 03:10:01;;;;;;;0.00;0.00;;;;;;;;;;1733581;28;20203;-78
2022/11/03 03:10:54;;;;;;;0.00;0.00;;;;;;;;;;1732467;28;20234;-78
2022/11/03 03:11:47;;;;;;;0.00;0.00;;;;;;;;;;1732248;28;20544;-78
2022/11/03 03:12:42;;;;;;;0.00;0.00;;;;;;;;;;1732253;28;20235;-78
2022/11/03 03:13:33;;;;;;;0.00;0.00;;;;;;;;;;1724797;28;20227;-78
2022/11/03 03:15:48;;;;;;;0.00;0.00;;;;;;;;;;1725379;28;20188;-78
2022/11/03 03:16:48;;;;;;;0.00;0.00;;;;;;;;;;1729801;28;20252;-78
2022/11/03 03:17:42;;;;;;;0.00;0.00;;;;;;;;;;1725469;28;20630;-78
2022/11/03 03:18:41;;;;;;;0.00;0.00;;;;;;;;;;1725573;28;20565;-78
2022/11/03 03:19:41;;;;;;;0.00;0.00;;;;;;;;;;1725782;28;20278;-77
2022/11/03 03:20:34;;;;;;;0.00;0.00;;;;;;;;;;1726006;28;20204;-77
2022/11/03 03:21:28;;;;;;;0.00;0.00;;;;;;;;;;1726176;28;20267;-77
2022/11/03 03:22:23;;;;;;;0.03;0.03;;;;;;;;;;1725157;28;20204;-77
2022/11/03 03:23:17;;;;;;;0.00;0.00;;;;;;;;;;1726737;28;20192;-77
2022/11/03 03:24:15;;;;;;;0.00;0.00;;;;;;;;;;1725320;28;20205;-78
2022/11/03 03:25:08;;;;;;;0.00;0.00;;;;;;;;;;1728240;28;20196;-78
2022/11/03 03:26:03;;;;;;;0.00;0.00;;;;;;;;;;1727762;28;20641;-78
2022/11/03 03:26:58;;;;;;;0.00;0.00;;;;;;;;;;1726723;28;20512;-78
2022/11/03 03:27:53;;;;;;;0.00;0.00;;;;;;;;;;1725687;28;20232;-78
2022/11/03 03:28:48;;;;;;;0.00;0.00;;;;;;;;;;1725007;28;20209;-78
2022/11/03 03:29:43;;;;;;;0.00;0.00;;;;;;;;;;1724405;28;20624;-78
2022/11/03 03:30:35;;;;;;;0.00;0.00;;;;;;;;;;1722824;28;20595;-78
2022/11/03 03:31:29;;;;;;;0.00;0.00;;;;;;;;;;1724319;28;20231;-78
2022/11/03 03:32:22;;;;;;;0.00;0.00;;;;;;;;;;1723022;28;20215;-77
2022/11/03 03:33:14;;;;;;;0.00;0.00;;;;;;;;;;1724835;28;20623;-78
2022/11/03 03:34:06;;;;;;;0.00;0.00;;;;;;;;;;1726243;28;20210;-78
2022/11/03 03:34:59;;;;;;;0.00;0.00;;;;;;;;;;1724735;28;20242;-78
2022/11/03 03:35:51;;;;;;;0.00;0.00;;;;;;;;;;1717908;28;20205;-78
2022/11/03 03:36:45;;;;;;;0.00;0.00;;;;;;;;;;1721401;28;20208;-78
2022/11/03 03:37:39;;;;;;;0.00;0.00;;;;;;;;;;1725958;28;20215;-78
2022/11/03 03:38:33;;;;;;;0.00;0.00;;;;;;;;;;1725945;28;20267;-78
2022/11/03 03:39:25;;;;;;;0.00;0.00;;;;;;;;;;1722300;28;20626;-78
2022/11/03 03:40:21;;;;;;;0.00;0.00;;;;;;;;;;1725446;28;20196;-78
2022/11/03 03:41:20;;;;;;;0.00;0.00;;;;;;;;;;1727522;28;20217;-78
2022/11/03 03:42:15;;;;;;;0.00;0.00;;;;;;;;;;1724226;28;20580;-78
2022/11/03 03:43:08;;;;;;;0.00;0.00;;;;;;;;;;1730343;28;20230;-77
2022/11/03 03:44:04;;;;;;;0.00;0.00;;;;;;;;;;1725801;28;20204;-77
2022/11/03 03:44:56;;;;;;;0.00;0.00;;;;;;;;;;1723511;28;20334;-77
2022/11/03 03:45:49;;;;;;;0.00;0.00;;;;;;;;;;1723853;28;20189;-78
2022/11/03 03:46:42;;;;;;;0.00;0.00;;;;;;;;;;1727064;28;20205;-78
2022/11/03 03:47:35;;;;;;;0.00;0.00;;;;;;;;;;1726442;28;20204;-78
2022/11/03 03:48:26;;;;;;;0.00;0.00;;;;;;;;;;1727497;28;20599;-78
2022/11/03 03:49:18;;;;;;;0.00;0.00;;;;;;;;;;1725840;28;20313;-78
2022/11/03 03:50:09;;;;;;;0.00;0.00;;;;;;;;;;1730718;28;20285;-78
2022/11/03 03:51:02;;;;;;;0.00;0.00;;;;;;;;;;1739472;28;20207;-78
2022/11/03 03:51:54;;;;;;;0.00;0.00;;;;;;;;;;1736740;28;20957;-78
2022/11/03 03:52:46;;;;;;;0.00;0.00;;;;;;;;;;1738498;28;20202;-78
2022/11/03 03:53:37;;;;;;;0.00;0.00;;;;;;;;;;1738640;28;20226;-78
2022/11/03 03:54:29;;;;;;;0.00;0.00;;;;;;;;;;1742231;28;20680;-79
2022/11/03 03:55:21;;;;;;;0.00;0.00;;;;;;;;;;1741549;28;20233;-77
2022/11/03 03:56:14;;;;;;;0.00;0.00;;;;;;;;;;1743239;28;20795;-77
2022/11/03 03:57:06;;;;;;;0.00;0.00;;;;;;;;;;1740863;28;20202;-77
2022/11/03 03:58:02;;;;;;;0.00;0.00;;;;;;;;;;1740558;28;20639;-77
2022/11/03 03:58:53;;;;;;;0.00;0.00;;;;;;;;;;1740423;28;21067;-77
2022/11/03 03:59:46;;;;;;;0.00;0.00;;;;;;;;;;1738260;28;20199;-77
2022/11/03 04:00:39;;;;;;;0.00;0.00;;;;;;;;;;1741914;28;20229;-77
2022/11/03 04:01:31;;;;;;;0.00;0.00;;;;;;;;;;1739647;28;20241;-77
2022/11/03 04:02:22;;;;;;;0.00;0.00;;;;;;;;;;1739576;28;20210;-77
2022/11/03 04:03:16;;;;;;;0.00;0.00;;;;;;;;;;1739527;28;20589;-77
2022/11/03 04:04:08;;;;;;;0.00;0.00;;;;;;;;;;1742115;28;20191;-77
2022/11/03 04:05:00;;;;;;;0.00;0.00;;;;;;;;;;1734815;28;20200;-77
2022/11/03 04:05:53;;;;;;;0.00;0.00;;;;;;;;;;1737461;28;20211;-77
2022/11/03 04:06:45;;;;;;;0.00;0.00;;;;;;;;;;1738829;28;20203;-77
2022/11/03 04:07:45;;;;;;;0.00;0.00;;;;;;;;;;1742685;28;20214;-77
2022/11/03 04:08:38;;;;;;;0.00;0.00;;;;;;;;;;1739521;28;20253;-77
2022/11/03 04:09:29;;;;;;;0.00;0.00;;;;;;;;;;1737796;28;20204;-77
2022/11/03 04:10:22;;;;;;;0.00;0.00;;;;;;;;;;1739352;28;20207;-77
2022/11/03 04:23:05;;;;;;;0.00;0.00;;;;;;;;;;1737631;28;20211;-77
2022/11/03 04:23:56;;;;;;;0.00;0.00;;;;;;;;;;1733061;28;20227;-77
2022/11/03 04:24:49;;;;;;;0.00;0.00;;;;;;;;;;1732408;28;20258;-77
2022/11/03 04:25:42;;;;;;;0.00;0.00;;;;;;;;;;1738705;28;20246;-77
2022/11/03 04:26:34;;;;;;;0.00;0.00;;;;;;;;;;1745163;28;20202;-77
2022/11/03 04:27:27;;;;;;;0.00;0.00;;;;;;;;;;1742013;28;20745;-77
2022/11/03 04:28:19;;;;;;;0.00;0.00;;;;;;;;;;1740115;28;20207;-77
2022/11/03 04:29:11;;;;;;;0.00;0.00;;;;;;;;;;1732620;28;20207;-77
2022/11/03 04:30:10;;;;;;;0.00;0.00;;;;;;;;;;1732949;28;20252;-77
2022/11/03 04:31:01;;;;;;;0.00;0.00;;;;;;;;;;1738974;28;20191;-77
2022/11/03 04:31:54;;;;;;;0.00;0.00;;;;;;;;;;1740310;28;20205;-77
2022/11/03 04:32:46;;;;;;;0.00;0.00;;;;;;;;;;1739583;28;20199;-77
2022/11/03 04:33:38;;;;;;;0.00;0.00;;;;;;;;;;1732596;28;20295;-77
2022/11/03 04:34:29;;;;;;;0.00;0.00;;;;;;;;;;1733474;28;20204;-78
2022/11/03 04:35:23;;;;;;;0.10;0.10;;;;;;;;;;1738635;28;20202;-77
2022/11/03 04:36:16;;;;;;;0.00;0.00;;;;;;;;;;1742908;28;20202;-77
2022/11/03 04:37:10;;;;;;;0.00;0.00;;;;;;;;;;1737975;28;20508;-78
2022/11/03 04:38:04;;;;;;;0.00;0.00;;;;;;;;;;1739560;28;20542;-78
2022/11/03 04:38:55;;;;;;;0.00;0.00;;;;;;;;;;1742428;28;20313;-77
2022/11/03 04:39:47;;;;;;;0.00;0.00;;;;;;;;;;1744172;28;20208;-77
2022/11/03 04:40:39;;;;;;;0.00;0.00;;;;;;;;;;1741697;28;20234;-77
2022/11/03 04:41:33;;;;;;;0.00;0.00;;;;;;;;;;1740088;28;20211;-77
2022/11/03 04:42:24;;;;;;;0.00;0.00;;;;;;;;;;1743058;28;20219;-76
2022/11/03 04:43:18;;;;;;;0.00;0.00;;;;;;;;;;1733883;28;20204;-77
2022/11/03 04:44:13;;;;;;;0.00;0.00;;;;;;;;;;1742470;28;20268;-77
2022/11/03 04:45:13;;;;;;;0.00;0.00;;;;;;;;;;1740497;28;20194;-77
2022/11/03 04:46:04;;;;;;;0.00;0.00;;;;;;;;;;1741677;28;20206;-77
2022/11/03 04:46:57;;;;;;;0.00;0.00;;;;;;;;;;1738550;28;20203;-77
2022/11/03 04:47:48;;;;;;;0.00;0.00;;;;;;;;;;1742885;28;20652;-77
2022/11/03 04:48:40;;;;;;;0.00;0.00;;;;;;;;;;1741267;28;20221;-76
2022/11/03 04:49:31;;;;;;;0.00;0.00;;;;;;;;;;1742382;28;20315;-77
2022/11/03 04:50:24;;;;;;;0.00;0.00;;;;;;;;;;1740434;28;20234;-77
2022/11/03 04:51:16;;;;;;;0.00;0.00;;;;;;;;;;1741122;28;20199;-77
2022/11/03 04:52:13;;;;;;;0.00;0.00;;;;;;;;;;1732416;28;20330;-77
2022/11/03 04:53:08;;;;;;;0.00;0.00;;;;;;;;;;1724079;28;20204;-77
2022/11/03 04:54:02;;;;;;;0.00;0.00;;;;;;;;;;1732616;28;20195;-76
2022/11/03 04:54:53;;;;;;;0.00;0.00;;;;;;;;;;1731836;28;20701;-78
2022/11/03 04:55:47;;;;;;;0.00;0.00;;;;;;;;;;1740947;28;20616;-77
2022/11/03 04:56:39;;;;;;;0.00;0.00;;;;;;;;;;1735518;28;20232;-77
2022/11/03 04:57:32;;;;;;;0.00;0.00;;;;;;;;;;1739954;28;20210;-77
2022/11/03 04:58:25;;;;;;;0.00;0.00;;;;;;;;;;1739866;28;20231;-77
2022/11/03 04:59:19;;;;;;;0.00;0.00;;;;;;;;;;1742505;28;20198;-77
2022/11/03 05:00:14;;;;;;;0.00;0.00;;;;;;;;;;1739316;28;20199;-77
2022/11/03 05:01:10;;;;;;;0.00;0.00;;;;;;;;;;1730678;28;20263;-78
2022/11/03 05:02:03;;;;;;;0.00;0.00;;;;;;;;;;1731628;28;20578;-78
2022/11/03 05:02:55;;;;;;;0.00;0.00;;;;;;;;;;1739719;28;20641;-78
2022/11/03 05:03:48;;;;;;;0.00;0.00;;;;;;;;;;1738090;28;20229;-78
2022/11/03 05:04:40;;;;;;;0.00;0.00;;;;;;;;;;1744504;28;20734;-78
2022/11/03 05:05:31;;;;;;;0.00;0.00;;;;;;;;;;1736304;28;20207;-78
2022/11/03 05:06:26;;;;;;;0.00;0.00;;;;;;;;;;1739086;28;20201;-78
2022/11/03 05:07:22;;;;;;;0.00;0.00;;;;;;;;;;1731363;28;20200;-78
2022/11/03 05:08:15;;;;;;;0.00;0.00;;;;;;;;;;1739142;28;20602;-77
2022/11/03 05:09:11;;;;;;;0.00;0.00;;;;;;;;;;1744654;28;20202;-77
2022/11/03 05:10:03;;;;;;;0.00;0.00;;;;;;;;;;1740036;28;20253;-78
2022/11/03 05:10:54;;;;;;;0.00;0.00;;;;;;;;;;1741750;28;20650;-78
2022/11/03 05:11:47;;;;;;;0.00;0.00;;;;;;;;;;1742488;28;20203;-78
2022/11/03 05:12:38;;;;;;;0.00;0.00;;;;;;;;;;1739961;28;20242;-78
2022/11/03 05:13:31;;;;;;;0.00;0.00;;;;;;;;;;1740373;28;20206;-78
2022/11/03 05:14:25;;;;;;;0.00;0.00;;;;;;;;;;1743215;28;20195;-77
2022/11/03 05:15:26;;;;;;;0.00;0.00;;;;;;;;;;1743579;28;20673;-78
2022/11/03 05:16:20;;;;;;;0.00;0.00;;;;;;;;;;1736740;28;20195;-78
2022/11/03 05:17:19;;;;;;;0.00;0.00;;;;;;;;;;1738081;28;20209;-78
2022/11/03 05:18:15;;;;;;;0.00;0.00;;;;;;;;;;1745240;28;20194;-78
2022/11/03 05:19:12;;;;;;;0.00;0.00;;;;;;;;;;1742387;28;20195;-78
2022/11/03 05:20:04;;;;;;;0.00;0.00;;;;;;;;;;1733884;28;20184;-78
2022/11/03 05:20:57;;;;;;;0.00;0.00;;;;;;;;;;1733406;28;20242;-78
2022/11/03 05:21:51;;;;;;;0.00;0.00;;;;;;;;;;1731712;28;20258;-78
2022/11/03 05:22:42;;;;;;;0.00;0.00;;;;;;;;;;1740088;28;20577;-78
2022/11/03 05:23:38;;;;;;;0.00;0.00;;;;;;;;;;1729619;28;20200;-77
2022/11/03 05:24:29;;;;;;;0.00;0.00;;;;;;;;;;1735368;28;20250;-77
2022/11/03 05:25:29;;;;;;;0.00;0.00;;;;;;;;;;1740635;28;20206;-77
2022/11/03 05:26:23;;;;;;;0.00;0.00;;;;;;;;;;1735418;28;20200;-77
2022/11/03 05:27:18;;;;;;;0.00;0.00;;;;;;;;;;1737928;28;20967;-78
2022/11/03 05:28:15;;;;;;;0.00;0.00;;;;;;;;;;1739933;28;20451;-77
2022/11/03 05:29:10;;;;;;;0.00;0.00;;;;;;;;;;1741645;28;20203;-77
2022/11/03 05:30:04;;;;;;;0.00;0.00;;;;;;;;;;1734050;28;20199;-78
2022/11/03 05:30:56;;;;;;;0.00;0.00;;;;;;;;;;1740714;28;20442;-78
2022/11/03 05:31:49;;;;;;;0.00;0.00;;;;;;;;;;1739183;28;20269;-78
2022/11/03 05:32:41;;;;;;;0.00;0.00;;;;;;;;;;1742707;28;20217;-78
2022/11/03 05:33:35;;;;;;;0.00;0.00;;;;;;;;;;1734657;28;20310;-78
2022/11/03 05:34:31;;;;;;;0.00;0.00;;;;;;;;;;1737152;28;20214;-78
2022/11/03 05:35:23;;;;;;;0.00;0.00;;;;;;;;;;1739344;28;20203;-78
2022/11/03 05:36:19;;;;;;;0.00;0.00;;;;;;;;;;1737930;28;20238;-78
2022/11/03 05:37:20;;;;;;;0.00;0.00;;;;;;;;;;1738285;28;20242;-78
2022/11/03 05:38:12;;;;;;;0.00;0.00;;;;;;;;;;1738493;28;20265;-77
2022/11/03 05:39:17;;;;;;;0.00;0.00;;;;;;;;;;1741034;28;20615;-77